Vila Real, Portugal

5:00 AM WEST on September 19, 2014 (GMT +0100)
Moimenta Da Beira | Change Station
CLOSE
Current Station
Personal Weather Station
Location: Moimenta Da Beira, PT
Elevation: 2116 ft
Nearby Weather Stations

Elev 2116 ft 40.98 °N, 7.61 °W | Updated 32 seconds ago

Light Rain Showers
Light Showers Rain
58.2 °F
Feels Like 58.2 °F
N
1.6
Wind Variable Wind from SE
Gusts 4.5 mph

Today
High -- | Low -- °F
--% Chance of Precip.
Yesterday
High -- | Low -- °F
Precip. -- in
7:15 AM 7:33 PM
Waning Crescent, 22% visible
Pressure 29.68 in
Visibility 6.2 miles
Clouds Mostly Cloudy 1000 ft
Mostly Cloudy 1600 ft
Dew Point 54 °F
Humidity 86%
Rainfall 0.00 in
Snow Depth Not available.
UV 0 out of 12
Pollen Not available.
Air Quality Not available.
Flu Activity Not available.
METAR LPPR 190330Z 17013KT 9999 -SHRA BKN010 BKN016 18/17 Q1005

More Conditions Fewer Conditions

Pressure 29.68 in
Visibility 6.2 miles
Clouds Mostly Cloudy 1000 ft
Mostly Cloudy 1600 ft
Dew Point 54 °F
Humidity 86%
Rainfall 0.00 in
Snow Depth Not available.
UV 0 out of 12
Pollen Not available.
Air Quality Not available.
Flu Activity Not available.
METAR LPPR 190330Z 17013KT 9999 -SHRA BKN010 BKN016 18/17 Q1005

More Conditions Fewer Conditions

10-Day Weather Forecast

Almanac

Astronomy

Sep. 19, 2014 Rise Set
Actual Time 7:15 AM WEST 7:33 PM WEST
Civil Twilight 6:47 AM WEST 8:01 PM WEST
Nautical Twilight 6:15 AM WEST 8:33 PM WEST
Astronomical Twilight 5:41 AM WEST 9:06 PM WEST
Moon 2:45 AM WEST 4:56 PM WEST
Length of Visible Light 13h 13m
Length of Day
12h 18m
Tomorrow will be 2m 44s shorter.
Waning Crescent, 22% of the Moon is Illuminated
Today
Waning Crescent
Sep 24
New
Oct 1
First Quarter
Oct 8
Full
Oct 15
Last Quarter

Yesterday's Extremes

Country Highs Country Lows

Community

WunderPhotos

Upload Photos

1,754,556 photos uploaded!

Nearby

Snow Depth

Not available.

Earthquake Activity

City Distance Mag. Time & Date
No recent earthquake activity has been reported nearby.
Minimum magnitude displayed is 2.5.

Coastal Water Temperatures

Place Temperature
No Stations Reporting

Nearby Weather Stations